Time;durP1;ratioP1;P1;durP2;ratioP2;P2;SDS_P1;SDS_P2;PMS_P1;PMS_P2;Temp;Humidity;BMP_temperature;BMP_pressure;BME280_temperature;BME280_humidity;BME280_pressure;Samples;Min_cycle;Max_cycle;Signal;HPM_P1;HPM_P2
2023/10/30 00:01:55;;;;;;;0.50;0.40;;;11.90;99.90;;;;;;5085611;28;20520;-81
2023/10/30 00:04:21;;;;;;;0.50;0.40;;;11.80;99.90;;;;;;5086092;28;20447;-81
2023/10/30 00:06:48;;;;;;;0.60;0.50;;;11.80;99.90;;;;;;5085015;28;20445;-81
2023/10/30 00:09:17;;;;;;;0.50;0.50;;;11.80;99.90;;;;;;5084442;28;20553;-81
2023/10/30 00:11:46;;;;;;;0.60;0.60;;;11.70;99.90;;;;;;5084477;28;20456;-80
2023/10/30 00:14:12;;;;;;;1.87;1.00;;;11.70;99.90;;;;;;5083967;28;20775;-81
2023/10/30 00:16:39;;;;;;;1.20;1.13;;;11.70;99.90;;;;;;5085376;28;20471;-82
2023/10/30 00:19:07;;;;;;;0.50;0.40;;;11.70;99.90;;;;;;5084308;28;20215;-82
2023/10/30 00:21:34;;;;;;;0.50;0.40;;;11.70;99.90;;;;;;5084905;28;20445;-81
2023/10/30 00:24:01;;;;;;;0.50;0.40;;;11.70;99.90;;;;;;5084858;28;20444;-81
2023/10/30 00:26:28;;;;;;;0.50;0.43;;;11.70;99.90;;;;;;5085267;28;20836;-81
2023/10/30 00:28:54;;;;;;;0.50;0.40;;;11.70;99.90;;;;;;5085382;28;20543;-82
2023/10/30 00:31:22;;;;;;;1.53;1.43;;;11.70;99.90;;;;;;5085637;28;20546;-80
2023/10/30 00:33:49;;;;;;;0.50;0.40;;;11.70;99.90;;;;;;5085077;28;20444;-82
2023/10/30 00:36:17;;;;;;;0.50;0.40;;;11.70;99.90;;;;;;5084884;28;20437;-82
2023/10/30 00:38:43;;;;;;;1.73;0.80;;;11.70;99.90;;;;;;5084720;28;20460;-81
2023/10/30 00:41:11;;;;;;;0.50;0.40;;;11.70;99.90;;;;;;5084902;28;20516;-81
2023/10/30 00:43:38;;;;;;;0.50;0.50;;;11.70;99.90;;;;;;5084427;28;20444;-82
2023/10/30 00:46:06;;;;;;;10.83;6.83;;;11.70;99.90;;;;;;5084843;28;20528;-82
2023/10/30 00:48:33;;;;;;;0.50;0.40;;;11.80;99.90;;;;;;5084934;28;20483;-78
2023/10/30 00:51:00;;;;;;;0.50;0.40;;;11.80;99.90;;;;;;5084943;28;20440;-81
2023/10/30 00:53:28;;;;;;;0.50;0.40;;;11.90;99.90;;;;;;5084506;28;20508;-82
2023/10/30 00:55:55;;;;;;;5.03;1.40;;;11.90;99.90;;;;;;5084872;28;20512;-80
2023/10/30 00:58:21;;;;;;;0.50;0.40;;;11.90;99.90;;;;;;5076010;28;20528;-81
2023/10/30 01:00:48;;;;;;;0.50;0.47;;;12.00;99.90;;;;;;5085319;28;20471;-81
2023/10/30 01:03:19;;;;;;;0.50;0.40;;;12.00;99.90;;;;;;5084546;28;20446;-82
2023/10/30 01:05:47;;;;;;;0.50;0.40;;;12.00;99.90;;;;;;5085704;28;20448;-82
2023/10/30 01:08:13;;;;;;;0.50;0.40;;;12.00;99.90;;;;;;5084027;28;20472;-82
2023/10/30 01:10:41;;;;;;;0.50;0.40;;;12.00;99.90;;;;;;5084236;28;20987;-82
2023/10/30 01:13:08;;;;;;;1.13;1.03;;;12.00;99.90;;;;;;5084294;28;20448;-81
2023/10/30 01:15:35;;;;;;;0.50;0.40;;;12.00;99.90;;;;;;5084372;28;20432;-81
2023/10/30 01:18:02;;;;;;;0.50;0.40;;;12.00;99.90;;;;;;5084538;28;20497;-81
2023/10/30 01:20:29;;;;;;;0.50;0.47;;;12.00;99.90;;;;;;5085367;28;20456;-82
2023/10/30 01:22:56;;;;;;;1.93;0.70;;;12.00;99.90;;;;;;5084191;28;20451;-81
2023/10/30 01:25:22;;;;;;;0.50;0.40;;;12.00;99.90;;;;;;5084865;28;20437;-80
2023/10/30 01:27:51;;;;;;;1.53;1.07;;;12.00;99.90;;;;;;5084030;28;20477;-82
2023/10/30 01:30:17;;;;;;;0.60;0.53;;;12.00;99.90;;;;;;5084437;28;20537;-82
2023/10/30 01:32:44;;;;;;;2.10;1.00;;;12.00;99.90;;;;;;5084594;28;20443;-82
2023/10/30 01:35:11;;;;;;;0.50;0.40;;;12.00;99.90;;;;;;5084860;28;21130;-81
2023/10/30 01:37:38;;;;;;;0.50;0.40;;;12.10;99.90;;;;;;5083830;28;20444;-81
2023/10/30 01:40:06;;;;;;;0.50;0.40;;;12.10;99.90;;;;;;5084231;28;20471;-82
2023/10/30 01:42:33;;;;;;;0.50;0.40;;;12.10;99.90;;;;;;5084236;28;20500;-82
2023/10/30 01:45:01;;;;;;;0.50;0.40;;;12.10;99.90;;;;;;5084641;28;20448;-82
2023/10/30 01:47:28;;;;;;;0.77;0.77;;;12.10;99.90;;;;;;5084599;28;20476;-82
2023/10/30 01:49:57;;;;;;;0.50;0.40;;;12.00;99.90;;;;;;5084302;28;20500;-81
2023/10/30 01:52:24;;;;;;;1.43;1.33;;;12.00;99.90;;;;;;5084503;28;20449;-80
2023/10/30 01:54:51;;;;;;;0.80;0.80;;;12.00;99.90;;;;;;5082499;28;20444;-78
2023/10/30 01:57:22;;;;;;;0.50;0.40;;;12.00;99.90;;;;;;5083433;28;20440;-82
2023/10/30 01:59:50;;;;;;;0.50;0.40;;;12.00;99.90;;;;;;5087739;28;20476;-81
2023/10/30 02:02:19;;;;;;;0.50;0.40;;;12.00;99.90;;;;;;5139435;22;21341;-83
2023/10/30 02:04:46;;;;;;;0.70;0.50;;;12.00;99.90;;;;;;5061581;28;20484;-82
2023/10/30 02:07:13;;;;;;;0.50;0.40;;;12.00;99.90;;;;;;5077575;28;20428;-83
2023/10/30 02:09:40;;;;;;;0.70;0.70;;;12.00;99.90;;;;;;5098738;28;20462;-82
2023/10/30 02:12:08;;;;;;;1.20;0.93;;;12.00;99.90;;;;;;5084284;28;20457;-82
2023/10/30 02:14:35;;;;;;;11.73;1.63;;;12.00;99.90;;;;;;5069578;28;20444;-80
2023/10/30 02:17:01;;;;;;;0.50;0.40;;;11.90;99.90;;;;;;5068320;28;20438;-82
2023/10/30 02:19:30;;;;;;;0.50;0.40;;;11.90;99.90;;;;;;5060737;28;20461;-81
2023/10/30 02:21:57;;;;;;;0.50;0.40;;;12.00;99.90;;;;;;5076007;28;20452;-82
2023/10/30 02:24:25;;;;;;;0.50;0.40;;;12.00;99.90;;;;;;5075492;28;20444;-82
2023/10/30 02:26:53;;;;;;;0.60;0.50;;;12.00;99.90;;;;;;5069371;28;20450;-79
2023/10/30 02:29:19;;;;;;;0.50;0.40;;;12.00;99.90;;;;;;5073654;28;20559;-81
2023/10/30 02:31:47;;;;;;;0.50;0.40;;;11.90;99.90;;;;;;5075120;28;20441;-82
2023/10/30 02:34:14;;;;;;;1.63;1.47;;;11.90;99.90;;;;;;5074664;28;20513;-82
2023/10/30 02:36:41;;;;;;;0.50;0.40;;;11.90;99.90;;;;;;5076173;28;20437;-82
2023/10/30 02:39:08;;;;;;;0.50;0.40;;;11.90;99.90;;;;;;5074434;28;20463;-81
2023/10/30 02:41:35;;;;;;;0.50;0.50;;;11.90;99.90;;;;;;5070496;28;20445;-82
2023/10/30 02:44:03;;;;;;;1.00;0.87;;;11.90;99.90;;;;;;5070603;28;20465;-82
2023/10/30 02:46:30;;;;;;;0.50;0.40;;;11.90;99.90;;;;;;5066156;28;20444;-81
2023/10/30 02:48:57;;;;;;;3.60;0.77;;;11.90;99.90;;;;;;5074176;28;20473;-82
2023/10/30 02:51:24;;;;;;;0.50;0.40;;;11.90;99.90;;;;;;5073340;28;20437;-81
2023/10/30 02:53:50;;;;;;;0.70;0.50;;;11.90;99.90;;;;;;5073839;28;20982;-82
2023/10/30 02:56:17;;;;;;;0.93;0.93;;;11.90;99.90;;;;;;5073503;28;20441;-81
2023/10/30 02:58:44;;;;;;;0.50;0.40;;;11.90;99.90;;;;;;5073430;28;20936;-82
2023/10/30 03:01:12;;;;;;;0.50;0.40;;;11.90;99.90;;;;;;5073365;28;20816;-82
2023/10/30 03:03:40;;;;;;;0.60;0.50;;;11.80;99.90;;;;;;5073384;28;20500;-82
2023/10/30 03:06:07;;;;;;;0.50;0.40;;;11.80;99.90;;;;;;5074193;28;20444;-82
2023/10/30 03:08:33;;;;;;;0.50;0.40;;;11.80;99.90;;;;;;5057614;28;20472;-82
2023/10/30 03:11:00;;;;;;;0.50;0.40;;;11.80;99.90;;;;;;5065532;28;20447;-81
2023/10/30 03:13:27;;;;;;;0.70;0.60;;;11.80;99.90;;;;;;5073266;28;20483;-82
2023/10/30 03:15:53;;;;;;;6.43;0.80;;;11.80;99.90;;;;;;5073499;28;20445;-81
2023/10/30 03:18:22;;;;;;;0.50;0.40;;;11.80;99.90;;;;;;5072943;28;20448;-81
2023/10/30 03:20:48;;;;;;;0.50;0.40;;;11.80;99.90;;;;;;5068004;28;20845;-81
2023/10/30 03:23:15;;;;;;;0.50;0.40;;;11.80;99.90;;;;;;5070515;28;20967;-82
2023/10/30 03:25:43;;;;;;;0.50;0.40;;;11.70;99.90;;;;;;5073628;28;20453;-81
2023/10/30 03:28:09;;;;;;;0.50;0.40;;;11.70;99.90;;;;;;5072949;28;20487;-80
2023/10/30 03:30:36;;;;;;;0.50;0.50;;;11.70;99.90;;;;;;5073013;28;20445;-82
2023/10/30 03:33:04;;;;;;;0.60;0.60;;;11.70;99.90;;;;;;5065189;28;20468;-82
2023/10/30 03:35:37;;;;;;;0.50;0.40;;;11.70;99.90;;;;;;5072289;28;20510;-82
2023/10/30 03:38:03;;;;;;;0.50;0.40;;;11.60;99.90;;;;;;5072923;28;20436;-83
2023/10/30 03:40:31;;;;;;;0.50;0.40;;;11.70;99.90;;;;;;5073029;28;20568;-82
2023/10/30 03:42:58;;;;;;;0.50;0.40;;;11.70;99.90;;;;;;5066324;28;20522;-82
2023/10/30 03:45:24;;;;;;;0.70;0.53;;;11.70;99.90;;;;;;5062845;28;20436;-82
2023/10/30 03:47:51;;;;;;;0.50;0.40;;;11.60;99.90;;;;;;5072789;28;20455;-82
2023/10/30 03:50:18;;;;;;;0.50;0.40;;;11.60;99.90;;;;;;5072604;28;20936;-82
2023/10/30 03:52:46;;;;;;;0.50;0.40;;;11.60;99.90;;;;;;5072243;28;20467;-83
2023/10/30 03:55:13;;;;;;;10.13;1.00;;;11.60;99.90;;;;;;5073139;28;20445;-81
2023/10/30 03:57:41;;;;;;;0.80;0.50;;;11.60;99.90;;;;;;5072605;28;20444;-82
2023/10/30 04:00:09;;;;;;;0.50;0.40;;;11.60;99.90;;;;;;5072456;28;20883;-82
2023/10/30 04:02:36;;;;;;;3.53;1.40;;;11.60;99.90;;;;;;5072422;28;20460;-82
2023/10/30 04:05:02;;;;;;;0.97;0.73;;;11.60;99.90;;;;;;5073001;28;20445;-82
2023/10/30 04:07:29;;;;;;;0.50;0.40;;;11.60;99.90;;;;;;5070708;28;20445;-82
2023/10/30 04:09:57;;;;;;;0.50;0.40;;;11.60;99.90;;;;;;5060469;28;20477;-80
2023/10/30 04:12:24;;;;;;;0.50;0.40;;;11.60;99.90;;;;;;5070560;28;20840;-86
2023/10/30 04:14:51;;;;;;;0.50;0.40;;;11.60;99.90;;;;;;5083847;28;20880;-82
2023/10/30 04:17:18;;;;;;;0.50;0.50;;;11.60;99.90;;;;;;5077782;28;20463;-87
2023/10/30 04:19:44;;;;;;;2.40;0.80;;;11.60;99.90;;;;;;5060417;28;20459;-85
2023/10/30 04:22:11;;;;;;;0.50;0.40;;;11.60;99.90;;;;;;5068339;28;20459;-84
2023/10/30 04:24:38;;;;;;;0.50;0.40;;;11.60;99.90;;;;;;5069917;28;20440;-82
2023/10/30 04:27:07;;;;;;;0.50;0.40;;;11.60;99.90;;;;;;5072214;28;20433;-83
2023/10/30 04:29:34;;;;;;;0.50;0.40;;;11.60;99.90;;;;;;5071351;28;20483;-82
2023/10/30 04:32:00;;;;;;;0.50;0.40;;;11.60;99.90;;;;;;5072094;28;20490;-84
2023/10/30 04:34:27;;;;;;;0.50;0.40;;;11.60;99.90;;;;;;5071878;28;20452;-83
2023/10/30 04:36:55;;;;;;;0.50;0.40;;;11.60;99.90;;;;;;5071820;28;20440;-83
2023/10/30 04:39:21;;;;;;;0.50;0.40;;;11.60;99.90;;;;;;5071673;28;20440;-83
2023/10/30 04:41:48;;;;;;;0.50;0.50;;;11.60;99.90;;;;;;5071736;28;20540;-82
2023/10/30 04:44:17;;;;;;;0.50;0.40;;;11.60;99.90;;;;;;5072454;28;20194;-80
2023/10/30 04:46:43;;;;;;;0.50;0.40;;;11.60;99.90;;;;;;5058595;28;20472;-82
2023/10/30 04:49:10;;;;;;;1.17;1.07;;;11.60;99.90;;;;;;5074184;28;20238;-83
2023/10/30 04:51:37;;;;;;;0.50;0.40;;;11.60;99.90;;;;;;5073156;28;20449;-83
2023/10/30 04:54:04;;;;;;;0.60;0.50;;;11.60;99.90;;;;;;5071362;28;20461;-84
2023/10/30 04:56:31;;;;;;;1.17;1.07;;;11.60;99.90;;;;;;5071293;28;20444;-82
2023/10/30 04:58:58;;;;;;;0.50;0.40;;;11.60;99.90;;;;;;5071783;28;20816;-82
2023/10/30 05:01:26;;;;;;;0.50;0.40;;;11.50;99.90;;;;;;5074769;28;20449;-82
2023/10/30 05:03:53;;;;;;;0.50;0.40;;;11.60;99.90;;;;;;5070429;28;21053;-84
2023/10/30 05:06:20;;;;;;;0.70;0.50;;;11.60;99.90;;;;;;5071323;28;20441;-84
2023/10/30 05:08:46;;;;;;;0.50;0.50;;;11.60;99.90;;;;;;5070897;28;20476;-83
2023/10/30 05:11:13;;;;;;;0.50;0.40;;;11.50;99.90;;;;;;5072337;28;20451;-83
2023/10/30 05:13:40;;;;;;;0.50;0.40;;;11.60;99.90;;;;;;5071739;28;20456;-83
2023/10/30 05:16:07;;;;;;;0.50;0.40;;;11.60;99.90;;;;;;5071802;28;20447;-83
2023/10/30 05:18:35;;;;;;;2.73;0.87;;;11.50;99.90;;;;;;5072462;28;20435;-84
2023/10/30 05:21:02;;;;;;;0.50;0.40;;;11.50;99.90;;;;;;5072460;28;20468;-82
2023/10/30 05:23:29;;;;;;;0.50;0.40;;;11.50;99.90;;;;;;5071137;28;20469;-83
2023/10/30 05:25:56;;;;;;;0.50;0.40;;;11.40;99.90;;;;;;5064144;28;20477;-82
2023/10/30 05:28:23;;;;;;;0.50;0.50;;;11.50;99.90;;;;;;5075148;28;20447;-82
2023/10/30 05:30:49;;;;;;;0.50;0.40;;;11.40;99.90;;;;;;5075502;28;20449;-83
2023/10/30 05:33:16;;;;;;;0.70;0.70;;;11.50;99.90;;;;;;5075691;28;20456;-83
2023/10/30 05:35:44;;;;;;;0.50;0.40;;;11.50;99.90;;;;;;5075098;28;20435;-82
2023/10/30 05:38:11;;;;;;;0.50;0.40;;;11.50;99.90;;;;;;5076021;28;20433;-83
2023/10/30 05:40:39;;;;;;;0.50;0.40;;;11.50;99.90;;;;;;5075788;28;20440;-82
2023/10/30 05:43:05;;;;;;;16.63;1.10;;;11.40;99.90;;;;;;5074597;28;20463;-82
2023/10/30 05:45:32;;;;;;;0.50;0.40;;;11.40;99.90;;;;;;5075683;28;20444;-82
2023/10/30 05:47:59;;;;;;;0.50;0.40;;;11.40;99.90;;;;;;5075665;28;20437;-83
2023/10/30 05:50:26;;;;;;;0.50;0.40;;;11.40;99.90;;;;;;5077320;28;20480;-82
2023/10/30 05:52:54;;;;;;;0.50;0.40;;;11.40;99.90;;;;;;5076285;28;20468;-83
2023/10/30 05:55:21;;;;;;;2.93;0.50;;;11.40;99.90;;;;;;5075651;28;20440;-82
2023/10/30 05:57:47;;;;;;;0.50;0.40;;;11.40;99.90;;;;;;5075764;28;20452;-82
2023/10/30 06:00:15;;;;;;;10.13;0.60;;;11.40;99.90;;;;;;5075038;28;20424;-82
2023/10/30 06:02:42;;;;;;;0.50;0.40;;;11.40;99.90;;;;;;5074822;28;20468;-83
2023/10/30 06:05:12;;;;;;;0.50;0.40;;;11.40;99.90;;;;;;5075647;28;20432;-83
2023/10/30 06:07:39;;;;;;;0.50;0.40;;;11.40;99.90;;;;;;5076321;28;20462;-83
2023/10/30 06:10:10;;;;;;;0.50;0.40;;;11.40;99.90;;;;;;5072101;28;20470;-82
2023/10/30 06:12:38;;;;;;;1.13;0.50;;;11.40;99.90;;;;;;5075903;28;20464;-84
2023/10/30 06:15:05;;;;;;;0.50;0.40;;;11.40;99.90;;;;;;5075343;28;20452;-82
2023/10/30 06:17:32;;;;;;;0.50;0.40;;;11.40;99.90;;;;;;5076967;28;20532;-83
2023/10/30 06:20:00;;;;;;;0.50;0.40;;;11.50;99.90;;;;;;5076849;28;20734;-77
2023/10/30 06:22:27;;;;;;;0.50;0.40;;;11.40;99.90;;;;;;5075747;28;21010;-80
2023/10/30 06:24:54;;;;;;;0.60;0.50;;;11.40;99.90;;;;;;5076469;28;20437;-83
2023/10/30 06:27:22;;;;;;;0.50;0.40;;;11.40;99.90;;;;;;5068806;28;20253;-82
2023/10/30 06:29:49;;;;;;;0.97;0.83;;;11.30;99.90;;;;;;5076024;28;20472;-80
2023/10/30 06:32:15;;;;;;;0.50;0.40;;;11.30;99.90;;;;;;5076691;28;20460;-83
2023/10/30 06:34:42;;;;;;;1.03;0.50;;;11.30;99.90;;;;;;5077381;28;20699;-83
2023/10/30 06:37:09;;;;;;;0.67;0.67;;;11.30;99.90;;;;;;5075802;28;20447;-81
2023/10/30 06:39:37;;;;;;;0.50;0.40;;;11.30;99.90;;;;;;5076494;28;20440;-83
2023/10/30 06:42:05;;;;;;;0.50;0.40;;;11.40;99.90;;;;;;5075913;28;20820;-80
2023/10/30 06:44:33;;;;;;;0.50;0.50;;;11.30;99.90;;;;;;5077045;28;20449;-80
2023/10/30 06:47:00;;;;;;;0.50;0.40;;;11.30;99.90;;;;;;5076376;28;20483;-82
2023/10/30 06:49:27;;;;;;;0.50;0.40;;;11.30;99.90;;;;;;5075938;28;20591;-81
2023/10/30 06:51:54;;;;;;;0.50;0.40;;;11.30;99.90;;;;;;5061232;28;20451;-81
2023/10/30 06:54:21;;;;;;;0.50;0.40;;;11.30;99.90;;;;;;5077481;28;20440;-84
2023/10/30 06:56:48;;;;;;;14.13;9.63;;;11.30;99.90;;;;;;5078184;28;20206;-82
2023/10/30 06:59:16;;;;;;;30.33;1.43;;;11.30;99.90;;;;;;5078842;28;20452;-81
2023/10/30 07:01:45;;;;;;;25.97;1.07;;;11.30;99.90;;;;;;5077335;28;20467;-82
2023/10/30 07:04:12;;;;;;;26.97;2.10;;;11.30;99.90;;;;;;5077102;28;20444;-82
2023/10/30 07:06:39;;;;;;;0.82;0.60;;;11.30;99.90;;;;;;5076750;28;20440;-81
2023/10/30 07:09:06;;;;;;;0.50;0.40;;;11.30;99.90;;;;;;5076237;28;20198;-81
2023/10/30 07:11:34;;;;;;;0.90;0.90;;;11.30;99.90;;;;;;5068387;28;20238;-82
2023/10/30 07:14:02;;;;;;;0.70;0.60;;;11.30;99.90;;;;;;5068486;28;20514;-81
2023/10/30 07:16:29;;;;;;;0.60;0.60;;;11.30;99.90;;;;;;5081436;28;20450;-81
2023/10/30 07:18:57;;;;;;;0.50;0.40;;;11.40;99.90;;;;;;5061092;28;20456;-83
2023/10/30 07:21:24;;;;;;;0.50;0.40;;;11.40;99.90;;;;;;5073701;28;20202;-82
2023/10/30 07:23:51;;;;;;;1.10;0.70;;;11.50;99.90;;;;;;5082215;28;20495;-81
2023/10/30 07:26:18;;;;;;;0.50;0.47;;;11.50;99.90;;;;;;5079700;28;20440;-84
2023/10/30 07:28:45;;;;;;;0.60;0.50;;;11.70;99.90;;;;;;5076102;28;20453;-83
2023/10/30 07:31:12;;;;;;;0.50;0.40;;;11.90;99.90;;;;;;5076003;28;20479;-83
2023/10/30 07:33:39;;;;;;;0.50;0.40;;;12.00;99.90;;;;;;5075017;28;20460;-82
2023/10/30 07:36:08;;;;;;;2.00;1.20;;;12.30;99.90;;;;;;5076279;28;20811;-83
2023/10/30 07:38:35;;;;;;;0.80;0.70;;;12.60;99.90;;;;;;5075480;28;20437;-83
2023/10/30 07:41:02;;;;;;;0.50;0.40;;;13.00;99.90;;;;;;5075244;28;20924;-82
2023/10/30 07:43:29;;;;;;;0.57;0.50;;;13.40;99.90;;;;;;5075112;28;20472;-83
2023/10/30 07:45:56;;;;;;;0.50;0.40;;;13.90;99.90;;;;;;5074248;28;20437;-80
2023/10/30 07:48:23;;;;;;;0.50;0.40;;;14.40;99.90;;;;;;5074811;28;20459;-83
2023/10/30 07:50:51;;;;;;;0.50;0.30;;;15.00;99.90;;;;;;5074165;28;21007;-82
2023/10/30 07:53:19;;;;;;;0.50;0.40;;;15.50;99.90;;;;;;5074372;28;20457;-82
2023/10/30 07:55:47;;;;;;;0.57;0.50;;;15.80;99.90;;;;;;5074110;28;20445;-82
2023/10/30 07:58:14;;;;;;;0.50;0.40;;;15.90;99.90;;;;;;5074520;28;20480;-82
2023/10/30 08:00:41;;;;;;;0.50;0.40;;;15.80;99.90;;;;;;5074119;28;20492;-82
2023/10/30 08:03:08;;;;;;;2.40;0.50;;;15.70;99.90;;;;;;5086177;22;20587;-79
2023/10/30 08:05:35;;;;;;;0.73;0.73;;;15.70;99.90;;;;;;5046981;28;20449;-79
2023/10/30 08:08:02;;;;;;;0.90;0.67;;;15.90;99.90;;;;;;5061005;28;20441;-81
2023/10/30 08:10:30;;;;;;;0.60;0.50;;;16.40;99.90;;;;;;5052501;28;20473;-82
2023/10/30 08:12:57;;;;;;;2.03;1.17;;;16.40;99.90;;;;;;5066094;28;20469;-82
2023/10/30 08:15:24;;;;;;;0.73;0.73;;;16.30;99.90;;;;;;5068256;28;20501;-81
2023/10/30 08:17:51;;;;;;;1.67;1.60;;;16.10;99.90;;;;;;5067624;28;20464;-80
2023/10/30 08:20:18;;;;;;;0.50;0.30;;;15.90;99.90;;;;;;5067520;28;20437;-82
2023/10/30 08:22:45;;;;;;;0.50;0.37;;;16.00;99.90;;;;;;5066760;28;20460;-81
2023/10/30 08:25:12;;;;;;;0.50;0.40;;;16.60;99.90;;;;;;5067375;28;20441;-83
2023/10/30 08:27:40;;;;;;;1.63;1.53;;;17.30;99.90;;;;;;5065824;28;20437;-82
2023/10/30 08:30:08;;;;;;;0.77;0.77;;;17.60;99.90;;;;;;5066387;28;20556;-82
2023/10/30 08:32:37;;;;;;;0.50;0.40;;;17.40;99.90;;;;;;5065200;28;20540;-83
2023/10/30 08:35:04;;;;;;;1.63;0.83;;;17.10;99.90;;;;;;5057790;28;20517;-82
2023/10/30 08:37:31;;;;;;;0.50;0.40;;;16.60;99.90;;;;;;5065667;28;20541;-82
2023/10/30 08:39:57;;;;;;;8.03;0.80;;;16.50;99.90;;;;;;5065928;28;20477;-82
2023/10/30 08:42:24;;;;;;;0.50;0.40;;;16.50;99.90;;;;;;5065686;28;20481;-82
2023/10/30 08:44:52;;;;;;;0.50;0.40;;;16.50;99.90;;;;;;5065293;28;20468;-81
2023/10/30 08:47:19;;;;;;;4.63;4.40;;;16.30;99.90;;;;;;5065913;28;20444;-83
2023/10/30 08:49:46;;;;;;;0.60;0.40;;;16.30;99.90;;;;;;5064568;28;20985;-81
2023/10/30 08:52:12;;;;;;;0.97;0.87;;;16.10;99.90;;;;;;5065557;28;20446;-81
2023/10/30 08:54:42;;;;;;;0.73;0.70;;;16.10;99.90;;;;;;5065361;28;20935;-82
2023/10/30 08:57:09;;;;;;;0.60;0.50;;;15.80;99.90;;;;;;5066135;28;20433;-82
2023/10/30 08:59:38;;;;;;;0.50;0.40;;;15.70;99.90;;;;;;5065956;28;20869;-83
2023/10/30 09:02:07;;;;;;;0.50;0.40;;;15.40;99.90;;;;;;5069405;28;20495;-82
2023/10/30 09:04:34;;;;;;;0.67;0.67;;;15.30;99.90;;;;;;5070065;28;20496;-82
2023/10/30 09:07:01;;;;;;;0.50;0.40;;;15.10;99.90;;;;;;5069797;28;20526;-81
2023/10/30 09:09:28;;;;;;;0.50;0.40;;;15.00;99.90;;;;;;5068921;28;20450;-83
2023/10/30 09:11:55;;;;;;;1.23;0.70;;;14.90;99.90;;;;;;5068788;28;20433;-82
2023/10/30 09:14:22;;;;;;;0.50;0.40;;;14.80;99.90;;;;;;5069390;28;20462;-82
2023/10/30 09:16:48;;;;;;;0.50;0.40;;;14.90;99.90;;;;;;5069442;28;20441;-83
2023/10/30 09:19:17;;;;;;;0.93;0.50;;;14.90;99.90;;;;;;5070000;28;20442;-82
2023/10/30 09:21:43;;;;;;;0.50;0.40;;;14.90;99.90;;;;;;5068465;28;20433;-78
2023/10/30 09:24:10;;;;;;;0.50;0.40;;;14.90;99.90;;;;;;5065668;28;20457;-81
2023/10/30 09:26:37;;;;;;;0.50;0.40;;;14.80;99.90;;;;;;5064719;28;20442;-80
2023/10/30 09:29:04;;;;;;;0.60;0.40;;;14.80;99.90;;;;;;5068273;28;20444;-82
2023/10/30 09:31:31;;;;;;;4.10;1.07;;;14.80;99.90;;;;;;5068560;28;20473;-81
2023/10/30 09:33:58;;;;;;;0.50;0.40;;;14.80;99.90;;;;;;5069310;28;20469;-82
2023/10/30 09:36:27;;;;;;;2.03;0.90;;;14.80;99.90;;;;;;5069278;28;20455;-82
2023/10/30 09:38:54;;;;;;;0.70;0.67;;;14.70;99.90;;;;;;5068563;28;20452;-82
2023/10/30 09:41:21;;;;;;;0.70;0.70;;;14.70;99.90;;;;;;5068611;28;20442;-81
2023/10/30 09:43:49;;;;;;;0.50;0.40;;;14.70;99.90;;;;;;5067456;28;20540;-82
2023/10/30 09:46:17;;;;;;;0.50;0.40;;;14.80;99.90;;;;;;5068776;28;20441;-83
2023/10/30 09:48:46;;;;;;;0.50;0.40;;;14.90;99.90;;;;;;5067612;28;20449;-82
2023/10/30 09:51:13;;;;;;;0.50;0.40;;;14.90;99.90;;;;;;5068867;28;20564;-81
2023/10/30 09:53:43;;;;;;;0.60;0.60;;;14.90;99.90;;;;;;5068037;28;20675;-82
2023/10/30 09:56:11;;;;;;;1.17;1.07;;;14.90;99.90;;;;;;5052138;28;20441;-83
2023/10/30 09:58:38;;;;;;;0.50;0.40;;;14.80;99.90;;;;;;5067908;28;20437;-80
2023/10/30 10:01:06;;;;;;;1.10;0.77;;;14.90;99.90;;;;;;5068607;28;20495;-82
2023/10/30 10:03:33;;;;;;;0.50;0.50;;;14.90;99.90;;;;;;5068278;28;20468;-83
2023/10/30 10:06:00;;;;;;;0.50;0.30;;;14.80;99.90;;;;;;5067811;28;20441;-81
2023/10/30 10:08:28;;;;;;;0.50;0.40;;;14.90;99.90;;;;;;5068367;28;20517;-82
2023/10/30 10:10:57;;;;;;;0.50;0.33;;;15.10;99.90;;;;;;5067942;28;20790;-81
2023/10/30 10:13:25;;;;;;;0.50;0.40;;;15.20;99.90;;;;;;5070404;28;20457;-81
2023/10/30 10:15:52;;;;;;;0.50;0.40;;;15.20;99.90;;;;;;5070998;28;20448;-82
2023/10/30 10:18:26;;;;;;;0.90;0.90;;;15.40;99.90;;;;;;5068544;28;20448;-82
2023/10/30 10:21:00;;;;;;;0.50;0.40;;;15.40;99.90;;;;;;5067924;28;20448;-82
2023/10/30 10:23:30;;;;;;;0.60;0.43;;;15.40;99.90;;;;;;5068662;28;20460;-82
2023/10/30 10:25:59;;;;;;;0.50;0.40;;;15.50;99.90;;;;;;5068244;28;21208;-83
2023/10/30 10:28:27;;;;;;;0.70;0.57;;;15.60;99.90;;;;;;5068107;28;20524;-83
2023/10/30 10:30:54;;;;;;;0.87;0.80;;;15.60;99.90;;;;;;5060403;28;20484;-81
2023/10/30 10:33:22;;;;;;;0.50;0.40;;;15.60;99.90;;;;;;5067922;28;21145;-83
2023/10/30 10:35:53;;;;;;;0.50;0.30;;;15.60;99.90;;;;;;5067521;28;20438;-82
2023/10/30 10:38:21;;;;;;;0.50;0.40;;;15.60;99.90;;;;;;5068056;28;20472;-82
2023/10/30 10:40:48;;;;;;;0.50;0.40;;;15.70;99.90;;;;;;5067653;28;20446;-83
2023/10/30 10:43:19;;;;;;;0.50;0.40;;;15.90;99.90;;;;;;5052034;28;20468;-83
2023/10/30 10:45:47;;;;;;;0.97;0.87;;;16.10;99.90;;;;;;5067255;28;20452;-83
2023/10/30 10:48:14;;;;;;;0.50;0.40;;;16.20;99.90;;;;;;5051365;28;20460;-83
2023/10/30 10:50:42;;;;;;;0.60;0.50;;;16.20;99.90;;;;;;5066907;28;20473;-81
2023/10/30 10:53:10;;;;;;;0.50;0.40;;;16.20;99.90;;;;;;5066343;28;20465;-83
2023/10/30 10:55:42;;;;;;;0.50;0.40;;;16.30;99.90;;;;;;5067501;28;20525;-82
2023/10/30 10:58:14;;;;;;;0.60;0.43;;;16.60;99.90;;;;;;5067537;28;20446;-81
2023/10/30 11:00:50;;;;;;;0.50;0.30;;;16.80;99.90;;;;;;5067679;28;21038;-78
2023/10/30 11:03:17;;;;;;;0.50;0.30;;;17.00;99.90;;;;;;5051888;28;20457;-83
2023/10/30 11:05:45;;;;;;;0.50;0.30;;;17.30;99.90;;;;;;5069792;28;20820;-85
2023/10/30 11:08:42;;;;;;;0.50;0.40;;;17.60;99.90;;;;;;5069344;28;20461;-84
2023/10/30 11:11:15;;;;;;;4.83;0.73;;;18.00;99.90;;;;;;5068587;28;20473;-85
2023/10/30 11:14:04;;;;;;;0.50;0.40;;;18.10;99.90;;;;;;5070826;28;20877;-85
2023/10/30 11:16:40;;;;;;;0.50;0.40;;;17.90;99.90;;;;;;5070014;28;20460;-84
2023/10/30 11:19:07;;;;;;;0.80;0.73;;;18.20;99.90;;;;;;5069535;28;20509;-84
2023/10/30 11:21:35;;;;;;;0.50;0.40;;;18.50;99.90;;;;;;5069683;28;20434;-84
2023/10/30 11:24:02;;;;;;;0.50;0.40;;;18.60;99.90;;;;;;5068846;28;20453;-84
2023/10/30 11:26:36;;;;;;;0.50;0.40;;;18.60;99.90;;;;;;5070147;28;20452;-84
2023/10/30 11:29:05;;;;;;;0.50;0.40;;;18.00;99.90;;;;;;5070308;28;20448;-84
2023/10/30 11:31:51;;;;;;;0.50;0.40;;;17.50;99.90;;;;;;5070653;28;20473;-84
2023/10/30 11:34:18;;;;;;;0.50;0.40;;;17.10;99.90;;;;;;5054299;28;20957;-84
2023/10/30 11:36:47;;;;;;;0.60;0.40;;;17.00;99.90;;;;;;5069895;28;20505;-84
2023/10/30 11:39:20;;;;;;;0.60;0.50;;;16.90;99.90;;;;;;5070739;28;21008;-85
2023/10/30 11:41:50;;;;;;;0.50;0.40;;;16.80;99.90;;;;;;5069038;28;20438;-84
2023/10/30 11:44:17;;;;;;;0.93;0.93;;;16.50;99.90;;;;;;5067846;28;20488;-82
2023/10/30 11:46:47;;;;;;;0.50;0.40;;;16.50;99.90;;;;;;5067191;28;20473;-84
2023/10/30 11:49:15;;;;;;;0.60;0.50;;;16.40;99.90;;;;;;5067556;28;20445;-82
2023/10/30 11:51:43;;;;;;;0.50;0.40;;;16.20;99.90;;;;;;5066237;28;20532;-80
2023/10/30 11:54:10;;;;;;;0.50;0.40;;;16.00;99.90;;;;;;5067291;28;20457;-82
2023/10/30 11:56:37;;;;;;;0.50;0.40;;;15.90;99.90;;;;;;5066979;28;20884;-82
2023/10/30 11:59:04;;;;;;;2.10;0.50;;;15.80;99.90;;;;;;5067349;28;20520;-83
2023/10/30 12:01:32;;;;;;;0.50;0.30;;;15.90;99.90;;;;;;5067475;28;20438;-82
2023/10/30 12:04:01;;;;;;;0.50;0.30;;;15.80;99.90;;;;;;5067876;28;20500;-84
2023/10/30 12:06:28;;;;;;;0.50;0.37;;;15.90;99.90;;;;;;5067122;28;20434;-83
2023/10/30 12:08:55;;;;;;;0.50;0.50;;;15.90;99.90;;;;;;5067089;28;20446;-83
2023/10/30 12:11:22;;;;;;;0.83;0.80;;;15.90;99.90;;;;;;5067812;28;20483;-84
2023/10/30 12:13:50;;;;;;;0.50;0.30;;;15.80;99.90;;;;;;5067522;28;20469;-84
2023/10/30 12:16:17;;;;;;;0.50;0.30;;;15.90;99.90;;;;;;5066625;28;20456;-83
2023/10/30 12:18:45;;;;;;;0.50;0.40;;;16.00;99.90;;;;;;5067668;28;20500;-83
2023/10/30 12:21:15;;;;;;;0.50;0.40;;;16.00;99.90;;;;;;5067447;28;20457;-84
2023/10/30 12:23:48;;;;;;;0.50;0.50;;;16.20;99.90;;;;;;5072300;28;20457;-82
2023/10/30 12:26:14;;;;;;;0.50;0.40;;;16.30;99.90;;;;;;5071559;28;20605;-84
2023/10/30 12:28:43;;;;;;;0.50;0.40;;;16.50;99.90;;;;;;5071130;28;20442;-83
2023/10/30 12:31:18;;;;;;;0.50;0.40;;;16.60;99.90;;;;;;5068687;28;20507;-81
2023/10/30 12:33:44;;;;;;;0.50;0.40;;;16.70;99.90;;;;;;5068118;28;20547;-83
2023/10/30 12:36:11;;;;;;;0.50;0.30;;;17.00;99.90;;;;;;5067571;28;20442;-83
2023/10/30 12:38:39;;;;;;;0.50;0.40;;;17.20;99.90;;;;;;5069288;28;20528;-79
2023/10/30 12:41:07;;;;;;;0.50;0.30;;;17.20;99.90;;;;;;5067827;28;20441;-84
2023/10/30 12:43:38;;;;;;;0.50;0.40;;;17.20;99.90;;;;;;5066856;28;20458;-83
2023/10/30 12:46:06;;;;;;;0.50;0.30;;;17.10;99.90;;;;;;5067103;28;20465;-84
2023/10/30 12:48:33;;;;;;;0.50;0.40;;;16.90;99.90;;;;;;5067159;28;20468;-83